Casper-Natrona County International Airport
KCPR : now visible

Airfield :











YOU CAN JOIN US ON...

 
LOGIN :

Register | Disclaimer

   EN    FR    IT 

 









Legend :    VFR   Marginal VFR   IFR   Intensive IFR   Very Intensive IFR
Visi :
Ceiling :
>= 8 km
>= 3000ft
5 to 8 km
1000 to 3000 ft
1500m to 5 km
500 to 1000 ft
800 to 1500m
200 to 500 ft
< 800m
< 200 ft
Symbols :   Thunderstorms  Fog  Heavy snow  Heavy precipitations  Wind > 20 kt







- Airport Elevation : 5350 ft
- IATA code : CPR


KCPR - Casper-Natrona County International

CURRENT METAR :
  • 190853Z AUTO 25005KT 10SM CLR 12/01 A3003 RMK AO2 SLP098 T01220006 50002

EXPIRED METARs :
  • 190753Z AUTO 26004KT 10SM CLR 13/01 A3003 RMK AO2 SLP098 T01280006
  • 190653Z AUTO 26007KT 10SM CLR 12/01 A3003 RMK AO2 SLP103 T01220006 403220078

TAF KCPR
Valid from the 19 at 06:00 until the 20 at 06:00 UTC


190520Z 1906/2006 23006KT P6SM SKC
FM191600 23012KT P6SM FEW120
FM191800 25014G24KT P6SM FEW200
FM200100 25009KT P6SM SCT200
FM200500 VRB06KT P6SM SCT200
No reported NOTAMs for that airfield.



MET'MAP, your aeronautical weather chart ! - Copyright ORBIFLY December 2007 - Disclaimer

ORBIFLY MET'MAP TEAM :

Programming & Development : Alexandra Zaïnal
Concept & Development : Baudouin d'Aumeries
Co-Development & Prog : Marc-Olivier Méhu
Technical & hardware support : Manuel Goepfert

Contact : metmap@orbifly.com




SOURCES & CREDITS :

   NOAA       Earth
Advisory